Time;durP1;ratioP1;P1;durP2;ratioP2;P2;SDS_P1;SDS_P2;PMS_P1;PMS_P2;Temp;Humidity;BMP_temperature;BMP_pressure;BME280_temperature;BME280_humidity;BME280_pressure;Samples;Min_cycle;Max_cycle;Signal;HPM_P1;HPM_P2
2022/01/14 00:00:44;;;;;;;3.67;3.57;;;16.00;63.40;;;;;;5067645;28;44872;-69
2022/01/14 00:03:12;;;;;;;4.10;3.90;;;16.00;63.50;;;;;;5069244;28;43960;-69
2022/01/14 00:05:41;;;;;;;4.10;3.90;;;16.00;63.50;;;;;;5069283;28;44091;-69
2022/01/14 00:08:09;;;;;;;3.93;3.83;;;16.10;63.20;;;;;;5068582;28;44029;-69
2022/01/14 00:10:37;;;;;;;4.30;4.10;;;16.10;62.60;;;;;;5069174;28;44202;-69
2022/01/14 00:13:16;;;;;;;4.27;4.07;;;16.20;63.40;;;;;;5069385;28;43994;-69
2022/01/14 00:15:44;;;;;;;3.97;3.80;;;16.10;62.80;;;;;;5069213;28;43789;-69
2022/01/14 00:18:11;;;;;;;4.40;4.20;;;16.10;63.00;;;;;;5067123;28;46190;-69
2022/01/14 00:20:41;;;;;;;3.90;3.70;;;16.10;63.10;;;;;;5068805;28;44055;-69
2022/01/14 00:23:09;;;;;;;3.80;3.70;;;16.00;63.20;;;;;;5068945;28;43835;-69
2022/01/14 00:33:52;;;;;;;3.90;3.80;;;15.90;63.60;;;;;;5061019;28;43945;-69
2022/01/14 00:36:21;;;;;;;4.10;4.00;;;15.90;63.70;;;;;;5067369;28;44062;-69
2022/01/14 00:38:49;;;;;;;4.10;3.93;;;15.90;63.70;;;;;;5068347;28;45010;-68
2022/01/14 00:41:17;;;;;;;4.17;4.07;;;15.90;63.70;;;;;;5068376;28;43976;-69
2022/01/14 00:43:45;;;;;;;4.60;4.40;;;15.90;63.60;;;;;;5068221;28;44001;-70
2022/01/14 00:46:13;;;;;;;4.00;3.80;;;15.90;63.50;;;;;;5068404;28;43977;-69
2022/01/14 00:48:41;;;;;;;4.80;4.60;;;16.10;63.30;;;;;;5068164;28;43960;-68
2022/01/14 00:51:09;;;;;;;4.30;4.10;;;16.30;63.50;;;;;;5067294;28;44790;-68
2022/01/14 00:53:38;;;;;;;4.17;3.97;;;16.40;62.10;;;;;;5068575;28;44048;-68
2022/01/14 00:56:19;;;;;;;4.17;3.87;;;16.50;61.70;;;;;;5068741;28;43932;-69
2022/01/14 01:01:32;;;;;;;3.77;3.57;;;16.40;61.90;;;;;;5068291;28;44027;-69
2022/01/14 01:04:01;;;;;;;3.93;3.83;;;16.30;62.30;;;;;;5068161;28;43900;-69
2022/01/14 01:06:28;;;;;;;3.80;3.70;;;16.20;62.50;;;;;;5067527;28;43972;-68
2022/01/14 01:08:58;;;;;;;4.17;4.00;;;16.10;62.70;;;;;;5067946;28;44007;-70
2022/01/14 01:11:31;;;;;;;3.83;3.73;;;16.10;62.90;;;;;;5067962;28;43946;-69
2022/01/14 01:14:04;;;;;;;4.27;4.07;;;16.00;63.10;;;;;;5066635;28;43961;-69
2022/01/14 01:16:32;;;;;;;3.93;3.83;;;16.00;63.90;;;;;;5067055;28;43560;-69
2022/01/14 01:19:00;;;;;;;3.83;3.73;;;16.00;63.30;;;;;;5067743;28;44997;-69
2022/01/14 01:21:28;;;;;;;4.70;4.40;;;15.90;63.30;;;;;;5067653;28;43424;-68
2022/01/14 01:23:58;;;;;;;3.90;3.80;;;15.90;63.30;;;;;;5067768;28;44013;-69
2022/01/14 01:26:30;;;;;;;4.30;4.10;;;16.00;63.40;;;;;;5067884;28;43848;-69
2022/01/14 01:29:09;;;;;;;4.17;3.97;;;16.10;63.10;;;;;;5067188;28;44017;-68
2022/01/14 01:31:38;;;;;;;3.87;3.77;;;16.10;62.50;;;;;;5067956;28;43938;-68
2022/01/14 01:34:08;;;;;;;3.83;3.67;;;16.20;62.70;;;;;;5067787;28;43897;-69
2022/01/14 01:36:36;;;;;;;4.07;3.97;;;16.10;62.70;;;;;;5067916;28;43840;-68
2022/01/14 01:39:07;;;;;;;4.17;3.97;;;16.10;62.90;;;;;;5067814;28;44554;-69
2022/01/14 01:41:35;;;;;;;4.13;4.00;;;16.10;63.10;;;;;;5067528;28;44007;-69
2022/01/14 01:44:06;;;;;;;3.97;3.77;;;16.00;63.10;;;;;;5067407;28;43762;-69
2022/01/14 01:46:34;;;;;;;4.07;3.87;;;16.00;63.30;;;;;;5067759;28;44019;-68
2022/01/14 01:49:02;;;;;;;3.67;3.57;;;16.00;63.40;;;;;;5067203;28;43967;-68
2022/01/14 01:51:30;;;;;;;4.07;3.90;;;15.90;63.40;;;;;;5067175;28;44006;-69
2022/01/14 01:53:58;;;;;;;4.20;4.00;;;15.90;63.50;;;;;;5067262;28;44001;-69
2022/01/14 01:56:27;;;;;;;3.50;3.40;;;15.90;63.60;;;;;;5067504;28;43962;-69
2022/01/14 01:58:56;;;;;;;3.80;3.60;;;15.90;63.60;;;;;;5066963;28;44005;-70
2022/01/14 02:01:24;;;;;;;3.67;3.57;;;15.90;63.60;;;;;;5060461;28;43897;-69
2022/01/14 02:03:53;;;;;;;3.70;3.60;;;15.80;63.50;;;;;;5060858;28;43977;-69
2022/01/14 02:06:22;;;;;;;3.70;3.60;;;15.80;63.50;;;;;;5060504;28;44038;-68
2022/01/14 02:08:50;;;;;;;3.73;3.63;;;15.90;63.50;;;;;;5060864;28;43696;-69
2022/01/14 02:11:18;;;;;;;4.13;3.93;;;16.10;63.20;;;;;;5060572;28;43994;-69
2022/01/14 02:13:49;;;;;;;3.40;3.20;;;16.30;62.50;;;;;;5060725;28;44011;-69
2022/01/14 02:16:30;;;;;;;3.90;3.70;;;16.40;61.90;;;;;;5061338;28;43892;-69
2022/01/14 02:19:14;;;;;;;3.80;3.70;;;16.40;61.50;;;;;;5066858;28;44001;-69
2022/01/14 02:24:57;;;;;;;3.63;3.53;;;16.30;62.00;;;;;;5067095;28;43915;-68
2022/01/14 02:27:24;;;;;;;3.97;3.77;;;16.20;62.40;;;;;;5067062;28;43889;-69
2022/01/14 02:29:52;;;;;;;3.70;3.50;;;16.10;62.60;;;;;;5066554;28;43979;-69
2022/01/14 02:32:20;;;;;;;3.93;3.63;;;16.10;62.90;;;;;;5066670;28;44003;-68
2022/01/14 02:34:48;;;;;;;3.73;3.63;;;16.00;63.00;;;;;;5066795;28;44060;-69
2022/01/14 02:37:37;;;;;;;3.40;3.30;;;16.00;63.20;;;;;;5065885;28;44087;-68
2022/01/14 02:40:06;;;;;;;4.03;3.83;;;16.00;63.30;;;;;;5065738;28;44005;-68
2022/01/14 02:42:34;;;;;;;3.70;3.60;;;15.90;63.30;;;;;;5066931;28;43956;-68
2022/01/14 02:45:06;;;;;;;3.43;3.23;;;15.90;63.30;;;;;;5066440;28;43898;-69
2022/01/14 02:47:34;;;;;;;3.80;3.70;;;15.90;63.30;;;;;;5066900;28;43410;-69
2022/01/14 02:50:02;;;;;;;3.73;3.53;;;16.00;63.30;;;;;;5065169;28;45838;-68
2022/01/14 02:52:42;;;;;;;3.60;3.30;;;16.10;62.80;;;;;;5064933;28;44861;-68
2022/01/14 02:55:18;;;;;;;3.57;3.47;;;16.10;62.50;;;;;;5065119;28;43988;-69
2022/01/14 02:57:47;;;;;;;3.73;3.53;;;16.10;62.60;;;;;;5065342;28;43518;-69
2022/01/14 03:00:16;;;;;;;3.27;3.17;;;16.10;62.80;;;;;;5066187;28;44103;-69
2022/01/14 03:02:46;;;;;;;3.57;3.47;;;16.00;62.90;;;;;;5066229;28;43412;-69
2022/01/14 03:05:15;;;;;;;3.40;3.30;;;16.00;63.00;;;;;;5065371;28;43905;-69
2022/01/14 03:07:43;;;;;;;3.53;3.43;;;15.90;63.10;;;;;;5078723;27;43522;-68
2022/01/14 03:10:13;;;;;;;3.40;3.30;;;15.90;63.30;;;;;;5067280;28;44070;-69
2022/01/14 03:12:42;;;;;;;3.30;3.20;;;15.90;63.40;;;;;;5066469;28;44120;-69
2022/01/14 03:15:10;;;;;;;3.37;3.27;;;15.90;63.50;;;;;;5066144;28;43934;-69
2022/01/14 03:17:39;;;;;;;3.70;3.60;;;15.80;63.50;;;;;;5066578;28;43581;-69
2022/01/14 03:20:09;;;;;;;3.40;3.30;;;15.80;63.60;;;;;;5064774;28;46139;-69
2022/01/14 03:22:41;;;;;;;3.83;3.57;;;15.80;63.70;;;;;;5066513;28;43909;-69
2022/01/14 03:27:57;;;;;;;3.30;3.20;;;15.80;63.70;;;;;;5066549;28;43995;-69
2022/01/14 03:30:25;;;;;;;3.97;3.77;;;15.80;63.80;;;;;;5065798;28;43756;-68
2022/01/14 03:32:52;;;;;;;3.70;3.60;;;15.90;63.30;;;;;;5064553;28;45117;-69
2022/01/14 03:35:20;;;;;;;3.67;3.57;;;16.10;62.90;;;;;;5066019;28;43405;-69
2022/01/14 03:37:48;;;;;;;3.80;3.70;;;16.30;62.20;;;;;;5064873;28;43850;-69
2022/01/14 03:40:16;;;;;;;3.60;3.50;;;16.40;61.70;;;;;;5065739;28;44018;-70
2022/01/14 03:42:44;;;;;;;3.90;3.70;;;16.30;61.70;;;;;;5065829;28;44113;-68
2022/01/14 03:45:14;;;;;;;3.67;3.57;;;16.30;62.20;;;;;;5065599;28;44043;-69
2022/01/14 03:47:42;;;;;;;3.57;3.47;;;16.20;62.40;;;;;;5065909;28;44181;-69
2022/01/14 03:50:11;;;;;;;3.50;3.40;;;16.20;62.70;;;;;;5065737;28;43916;-69
2022/01/14 03:52:38;;;;;;;3.60;3.50;;;16.10;62.90;;;;;;5066567;28;44850;-69
2022/01/14 03:55:07;;;;;;;3.50;3.40;;;16.00;63.00;;;;;;5069589;28;43814;-68
2022/01/14 03:57:46;;;;;;;3.30;3.20;;;16.00;63.20;;;;;;5069703;28;43946;-69
2022/01/14 04:00:17;;;;;;;3.43;3.33;;;16.00;63.20;;;;;;5067451;28;46214;-69
2022/01/14 04:02:45;;;;;;;3.20;3.10;;;16.00;63.30;;;;;;5066042;28;43699;-69
2022/01/14 04:05:13;;;;;;;3.70;3.50;;;15.90;63.30;;;;;;5067757;28;43964;-69
2022/01/14 04:07:41;;;;;;;3.50;3.40;;;15.90;63.30;;;;;;5067864;28;43933;-69
2022/01/14 04:10:12;;;;;;;3.80;3.70;;;15.90;63.30;;;;;;5068564;28;44001;-68
2022/01/14 04:12:51;;;;;;;3.53;3.23;;;16.00;63.30;;;;;;5069198;28;43927;-69
2022/01/14 04:15:40;;;;;;;3.50;3.40;;;16.10;62.80;;;;;;5069090;28;43865;-69
2022/01/14 04:18:09;;;;;;;3.33;3.23;;;16.10;62.50;;;;;;5067796;28;43854;-68
2022/01/14 04:20:37;;;;;;;3.50;3.40;;;16.10;62.50;;;;;;5067455;28;45622;-69
2022/01/14 04:23:05;;;;;;;3.40;3.30;;;16.10;62.70;;;;;;5068877;28;44007;-69
2022/01/14 04:25:33;;;;;;;3.03;2.93;;;16.10;62.90;;;;;;5068834;28;43904;-68
2022/01/14 04:28:01;;;;;;;3.40;3.30;;;16.00;62.90;;;;;;5068877;28;44077;-69
2022/01/14 04:30:31;;;;;;;3.40;3.30;;;16.00;63.00;;;;;;5068521;28;45103;-69
2022/01/14 04:32:59;;;;;;;3.10;3.00;;;15.90;63.00;;;;;;5068507;28;44054;-69
2022/01/14 04:35:27;;;;;;;3.50;3.40;;;15.90;63.10;;;;;;5068612;28;43879;-69
2022/01/14 04:37:54;;;;;;;3.77;3.60;;;15.90;63.30;;;;;;5068980;28;44011;-69
2022/01/14 04:40:22;;;;;;;3.83;3.40;;;15.90;63.40;;;;;;5068401;28;44626;-69
2022/01/14 04:42:52;;;;;;;4.10;3.90;;;15.90;63.40;;;;;;5068497;28;43960;-69
2022/01/14 04:45:29;;;;;;;3.70;3.50;;;15.80;63.50;;;;;;5068169;28;43962;-69
2022/01/14 04:47:59;;;;;;;4.77;4.10;;;15.80;63.50;;;;;;5068839;28;43941;-69
2022/01/14 04:50:26;;;;;;;4.93;4.53;;;15.80;63.40;;;;;;5068132;28;43939;-69
2022/01/14 04:52:54;;;;;;;5.43;4.50;;;15.90;63.50;;;;;;5066928;28;46229;-69
2022/01/14 04:55:25;;;;;;;6.73;4.33;;;16.00;63.40;;;;;;5068375;28;43973;-69
2022/01/14 04:57:54;;;;;;;5.30;4.80;;;16.20;62.80;;;;;;5068561;28;43850;-69
2022/01/14 05:00:22;;;;;;;7.07;4.57;;;16.30;62.20;;;;;;5067813;28;43916;-70
2022/01/14 05:02:53;;;;;;;8.50;4.80;;;16.40;61.70;;;;;;5067437;28;43944;-69
2022/01/14 05:05:23;;;;;;;5.20;4.63;;;16.40;61.60;;;;;;5068058;28;43476;-69
2022/01/14 05:07:51;;;;;;;6.47;5.10;;;16.30;61.90;;;;;;5068521;28;43891;-69
2022/01/14 05:10:33;;;;;;;5.17;4.70;;;16.30;62.20;;;;;;5066256;28;44854;-68
2022/01/14 05:13:02;;;;;;;6.87;5.53;;;16.20;62.40;;;;;;5068271;28;44202;-69
2022/01/14 05:15:30;;;;;;;5.93;4.93;;;16.10;62.60;;;;;;5068046;28;43944;-69
2022/01/14 05:17:58;;;;;;;5.57;4.93;;;16.10;62.90;;;;;;5066790;28;44338;-69
2022/01/14 05:20:27;;;;;;;9.73;4.80;;;16.00;63.00;;;;;;5066331;28;46143;-69
2022/01/14 05:22:55;;;;;;;5.50;4.90;;;16.00;63.20;;;;;;5067637;28;44251;-69
2022/01/14 05:25:23;;;;;;;5.87;5.33;;;15.90;63.20;;;;;;5067931;28;43981;-69
2022/01/14 05:27:50;;;;;;;7.13;5.00;;;15.90;63.20;;;;;;5068096;28;44224;-69
2022/01/14 05:30:18;;;;;;;8.40;4.97;;;15.90;63.30;;;;;;5067541;28;43967;-69
2022/01/14 05:32:47;;;;;;;6.83;5.20;;;15.90;63.30;;;;;;5067529;28;43982;-69
2022/01/14 05:35:16;;;;;;;7.80;5.67;;;15.90;63.30;;;;;;5067560;28;43842;-69
2022/01/14 05:37:45;;;;;;;9.00;5.63;;;16.00;62.80;;;;;;5067870;28;44092;-69
2022/01/14 05:40:14;;;;;;;8.87;5.70;;;16.10;62.60;;;;;;5066033;28;46132;-68
2022/01/14 05:42:42;;;;;;;7.57;5.30;;;16.10;62.70;;;;;;5066118;28;44785;-69
2022/01/14 05:45:12;;;;;;;8.20;5.63;;;16.00;62.60;;;;;;5067222;28;44057;-69
2022/01/14 05:47:40;;;;;;;7.37;5.87;;;16.00;62.90;;;;;;5068064;28;43951;-68
2022/01/14 05:50:11;;;;;;;10.40;6.30;;;15.90;63.00;;;;;;5067607;28;44042;-69
2022/01/14 05:52:39;;;;;;;8.90;6.27;;;15.90;63.30;;;;;;5066181;28;43399;-69
2022/01/14 05:55:09;;;;;;;9.77;6.20;;;15.90;63.30;;;;;;5067661;28;43897;-69
2022/01/14 05:57:38;;;;;;;9.73;6.23;;;15.80;63.20;;;;;;5068023;28;43947;-70
2022/01/14 06:00:08;;;;;;;10.20;6.50;;;15.80;63.30;;;;;;5067101;28;45064;-69
2022/01/14 06:02:43;;;;;;;12.53;7.00;;;15.80;63.40;;;;;;5064064;28;44045;-69
2022/01/14 06:05:12;;;;;;;10.17;6.23;;;15.80;63.50;;;;;;5065939;28;43961;-69
2022/01/14 06:07:40;;;;;;;12.60;6.10;;;15.80;63.60;;;;;;5066145;28;44020;-69
2022/01/14 06:10:10;;;;;;;14.00;7.50;;;15.80;63.70;;;;;;5066996;28;43751;-69
2022/01/14 06:12:38;;;;;;;12.47;7.30;;;15.80;63.70;;;;;;5067558;28;43816;-69
2022/01/14 06:15:06;;;;;;;14.00;7.33;;;15.80;63.50;;;;;;5066902;28;43964;-69
2022/01/14 06:17:34;;;;;;;14.37;7.00;;;15.90;63.30;;;;;;5067636;28;43877;-69
2022/01/14 06:20:03;;;;;;;15.53;7.43;;;16.10;62.80;;;;;;5066681;28;43988;-69
2022/01/14 06:22:31;;;;;;;12.17;7.33;;;16.30;62.30;;;;;;5066776;28;43955;-69
2022/01/14 06:25:00;;;;;;;12.07;7.27;;;16.30;61.70;;;;;;5066980;28;44007;-69
2022/01/14 06:27:32;;;;;;;12.30;7.30;;;16.30;61.70;;;;;;5067194;28;43589;-69
2022/01/14 06:30:00;;;;;;;9.03;6.57;;;16.30;61.90;;;;;;5066649;28;45104;-69
2022/01/14 06:32:28;;;;;;;7.70;6.30;;;16.20;62.10;;;;;;5066793;28;43436;-68
2022/01/14 06:34:56;;;;;;;7.90;6.73;;;16.10;62.20;;;;;;5066898;28;43301;-69
2022/01/14 06:37:24;;;;;;;7.63;6.40;;;16.10;62.60;;;;;;5066786;28;44214;-69
2022/01/14 06:39:53;;;;;;;8.53;6.43;;;16.00;62.70;;;;;;5066422;28;44105;-68
2022/01/14 06:42:21;;;;;;;8.10;6.67;;;16.00;62.90;;;;;;5066564;28;43974;-68
2022/01/14 06:44:50;;;;;;;9.93;6.80;;;15.90;62.90;;;;;;5066658;28;43398;-69
2022/01/14 06:47:18;;;;;;;8.63;6.93;;;15.90;63.00;;;;;;5067082;28;43957;-69
2022/01/14 06:49:46;;;;;;;10.93;7.07;;;15.80;63.20;;;;;;5066011;28;43972;-69
2022/01/14 06:52:14;;;;;;;7.73;6.83;;;15.80;63.30;;;;;;5064996;28;44878;-69
2022/01/14 06:54:42;;;;;;;8.27;7.07;;;15.80;63.20;;;;;;5066584;28;43960;-69
2022/01/14 06:57:10;;;;;;;12.47;7.33;;;15.80;63.30;;;;;;5067116;28;43596;-69
2022/01/14 06:59:38;;;;;;;11.77;7.13;;;15.90;63.00;;;;;;5066435;28;44035;-69
2022/01/14 07:02:08;;;;;;;10.43;7.20;;;16.10;62.50;;;;;;5066253;28;43923;-69
2022/01/14 07:04:36;;;;;;;10.43;7.10;;;16.20;62.10;;;;;;5060049;28;43374;-69
2022/01/14 07:07:05;;;;;;;8.97;6.93;;;16.10;62.20;;;;;;5060577;28;43911;-70
2022/01/14 07:09:34;;;;;;;12.57;6.90;;;16.10;62.30;;;;;;5059374;28;43607;-69
2022/01/14 07:12:03;;;;;;;9.50;6.60;;;16.00;62.50;;;;;;5055398;28;43924;-70
2022/01/14 07:14:30;;;;;;;8.60;7.27;;;16.00;62.70;;;;;;5065881;28;43879;-69
2022/01/14 07:16:59;;;;;;;7.60;6.60;;;15.90;62.90;;;;;;5066403;28;43991;-69
2022/01/14 07:19:28;;;;;;;8.83;6.67;;;15.80;63.70;;;;;;5064220;28;45289;-69
2022/01/14 07:21:56;;;;;;;7.43;6.47;;;15.80;63.10;;;;;;5065539;28;43963;-69
2022/01/14 07:24:24;;;;;;;7.37;6.37;;;15.80;63.20;;;;;;5065759;28;44039;-69
2022/01/14 07:26:51;;;;;;;8.50;6.57;;;15.80;63.30;;;;;;5067109;28;44239;-70
2022/01/14 07:29:19;;;;;;;8.87;7.20;;;15.70;63.40;;;;;;5067526;28;45502;-68
2022/01/14 07:31:47;;;;;;;7.50;6.67;;;15.70;63.40;;;;;;5068998;28;44207;-69
2022/01/14 07:34:15;;;;;;;9.13;7.40;;;15.70;63.50;;;;;;5069185;28;43775;-69
2022/01/14 07:36:44;;;;;;;8.17;6.77;;;15.70;63.40;;;;;;5068152;28;43944;-69
2022/01/14 07:39:12;;;;;;;10.10;6.83;;;15.80;63.40;;;;;;5068934;28;43998;-69
2022/01/14 08:58:32;;;;;;;13.60;7.50;;;15.40;67.10;;;;;;5105975;27;44050;-69
2022/01/14 09:01:00;;;;;;;12.60;7.23;;;15.50;67.00;;;;;;5103761;27;43960;-66
2022/01/14 09:03:28;;;;;;;11.07;6.70;;;15.70;66.60;;;;;;5103263;27;43982;-69
2022/01/14 09:05:56;;;;;;;12.47;7.33;;;15.80;65.80;;;;;;5102188;27;44081;-68
2022/01/14 09:08:24;;;;;;;16.87;7.37;;;16.00;65.30;;;;;;5101341;27;45787;-69
2022/01/14 09:10:52;;;;;;;15.83;7.40;;;16.10;64.60;;;;;;5102403;27;43810;-68
2022/01/14 09:13:20;;;;;;;8.97;6.63;;;16.30;64.20;;;;;;5103461;27;43942;-68
2022/01/14 09:15:49;;;;;;;11.60;7.13;;;16.30;63.70;;;;;;5103546;27;44079;-68
2022/01/14 09:18:17;;;;;;;13.63;6.90;;;16.30;63.70;;;;;;5102782;27;45081;-68
2022/01/14 09:20:45;;;;;;;10.47;6.53;;;16.30;64.10;;;;;;5103163;27;44007;-68
2022/01/14 09:23:17;;;;;;;13.43;7.07;;;16.10;64.40;;;;;;5103321;27;44058;-67
2022/01/14 09:25:45;;;;;;;20.73;6.70;;;16.00;64.80;;;;;;5103767;27;43531;-68
2022/01/14 09:28:13;;;;;;;18.17;6.73;;;15.90;65.90;;;;;;5103076;27;44020;-67
2022/01/14 09:30:41;;;;;;;12.97;6.53;;;15.90;66.00;;;;;;5102973;27;43927;-68
2022/01/14 09:33:10;;;;;;;7.83;6.57;;;15.80;66.30;;;;;;5103182;27;44144;-69
2022/01/14 09:35:40;;;;;;;12.73;6.63;;;15.70;66.00;;;;;;5103278;27;43918;-68
2022/01/14 09:38:08;;;;;;;8.73;6.50;;;15.70;66.00;;;;;;5096247;27;45249;-68
2022/01/14 09:40:36;;;;;;;7.80;6.40;;;15.70;66.00;;;;;;5111874;27;44355;-69
2022/01/14 09:43:04;;;;;;;17.77;6.67;;;15.70;66.10;;;;;;5096345;27;43835;-68
2022/01/14 09:45:52;;;;;;;8.47;6.13;;;15.70;66.10;;;;;;5099408;27;44145;-68
2022/01/14 09:48:21;;;;;;;10.60;6.33;;;15.70;66.30;;;;;;5117812;27;44134;-68
2022/01/14 09:50:51;;;;;;;8.00;6.87;;;15.80;65.90;;;;;;5101047;27;45391;-68
2022/01/14 09:53:19;;;;;;;8.47;6.57;;;15.90;65.40;;;;;;5136400;22;44056;-75
2022/01/14 09:55:47;;;;;;;7.23;5.47;;;15.90;65.30;;;;;;5124433;27;44215;-75
2022/01/14 09:58:15;;;;;;;9.23;6.07;;;15.90;65.30;;;;;;5117539;27;43899;-75
2022/01/14 10:00:44;;;;;;;5.87;5.37;;;15.90;65.40;;;;;;5110319;27;43977;-76
2022/01/14 10:03:20;;;;;;;6.83;6.13;;;15.90;65.50;;;;;;5110508;27;43916;-76
2022/01/14 10:05:51;;;;;;;6.13;5.70;;;15.90;65.60;;;;;;5110798;27;43874;-75
2022/01/14 10:08:22;;;;;;;6.50;5.90;;;15.80;65.50;;;;;;5125599;27;46310;-75
2022/01/14 10:10:52;;;;;;;8.00;5.90;;;15.80;65.60;;;;;;5107192;27;46249;-75
2022/01/14 10:13:21;;;;;;;6.50;5.90;;;15.80;65.60;;;;;;5129431;27;43774;-75
2022/01/14 10:15:51;;;;;;;6.93;6.23;;;15.80;65.70;;;;;;5130147;27;43420;-75
2022/01/14 10:18:22;;;;;;;6.67;6.07;;;15.80;65.80;;;;;;5129633;27;44028;-75
2022/01/14 10:20:51;;;;;;;5.50;5.13;;;15.80;65.80;;;;;;5110344;27;44006;-75
2022/01/14 10:23:20;;;;;;;5.83;5.30;;;15.80;65.70;;;;;;5125734;27;44109;-75
2022/01/14 10:25:57;;;;;;;6.47;5.77;;;15.80;65.80;;;;;;5105270;27;43895;-75
2022/01/14 10:28:25;;;;;;;5.80;5.30;;;15.80;65.60;;;;;;5127093;27;45594;-75
2022/01/14 10:30:53;;;;;;;6.00;5.30;;;15.90;65.30;;;;;;5110722;27;43872;-76
2022/01/14 10:33:23;;;;;;;5.57;5.17;;;16.10;65.00;;;;;;5110747;27;43981;-75
2022/01/14 10:35:51;;;;;;;5.93;5.40;;;16.20;64.40;;;;;;5129995;27;44119;-75
2022/01/14 10:38:23;;;;;;;5.93;5.43;;;16.30;64.20;;;;;;5111192;27;45413;-75
2022/01/14 10:40:52;;;;;;;5.73;5.30;;;16.30;64.30;;;;;;5127572;27;44115;-75
2022/01/14 10:43:22;;;;;;;5.93;5.40;;;16.20;64.40;;;;;;5109605;27;43995;-75
2022/01/14 10:45:54;;;;;;;5.73;5.43;;;16.10;64.50;;;;;;5110030;27;43529;-75
2022/01/14 10:48:30;;;;;;;5.77;5.27;;;16.10;64.70;;;;;;5109399;27;43914;-75
2022/01/14 10:50:58;;;;;;;6.00;5.50;;;16.00;64.90;;;;;;5109899;27;44411;-75
2022/01/14 10:53:28;;;;;;;5.37;4.90;;;16.00;65.10;;;;;;5124800;27;43476;-75
2022/01/14 10:56:00;;;;;;;5.30;4.90;;;15.90;65.90;;;;;;5123412;27;43585;-76
2022/01/14 10:58:29;;;;;;;5.47;5.17;;;15.90;65.30;;;;;;5128033;27;44060;-76
2022/01/14 11:01:05;;;;;;;5.60;5.17;;;15.90;65.40;;;;;;5128130;27;44657;-76
2022/01/14 11:03:36;;;;;;;5.03;4.73;;;15.90;65.60;;;;;;5129178;27;44002;-76
2022/01/14 11:06:18;;;;;;;5.53;5.13;;;15.80;65.60;;;;;;5107904;27;43958;-76
2022/01/14 11:08:47;;;;;;;5.03;4.73;;;15.80;65.80;;;;;;5124487;27;43942;-76
2022/01/14 11:11:15;;;;;;;5.23;4.93;;;15.90;65.60;;;;;;5126899;27;44976;-76
2022/01/14 11:13:44;;;;;;;4.83;4.53;;;15.90;65.30;;;;;;5129209;27;43959;-75
2022/01/14 11:16:14;;;;;;;4.87;4.57;;;16.00;65.30;;;;;;5129502;27;44004;-75
2022/01/14 11:18:43;;;;;;;5.00;4.80;;;15.90;65.30;;;;;;5128730;27;43923;-75
2022/01/14 11:23:57;;;;;;;5.00;4.80;;;15.90;65.50;;;;;;5128967;27;43879;-75
2022/01/14 11:26:29;;;;;;;4.73;4.47;;;15.90;65.60;;;;;;5128109;27;44009;-75
2022/01/14 11:28:57;;;;;;;5.03;4.73;;;15.90;65.60;;;;;;5128652;27;45103;-75
2022/01/14 11:31:26;;;;;;;5.10;4.80;;;15.90;65.80;;;;;;5129094;27;44404;-75
2022/01/14 11:33:56;;;;;;;4.90;4.60;;;15.90;65.90;;;;;;5128755;27;44016;-75
2022/01/14 11:36:25;;;;;;;4.90;4.60;;;15.90;65.90;;;;;;5128659;27;43630;-75
2022/01/14 11:38:53;;;;;;;4.87;4.67;;;15.80;65.80;;;;;;5127091;27;45701;-76
2022/01/14 11:41:23;;;;;;;4.40;4.20;;;15.80;65.80;;;;;;5128559;27;43883;-76
2022/01/14 11:43:53;;;;;;;5.07;4.83;;;15.80;65.80;;;;;;5108996;27;43887;-76
2022/01/14 11:46:43;;;;;;;4.50;4.30;;;15.80;65.80;;;;;;5109166;27;44103;-76
2022/01/14 11:49:38;;;;;;;5.10;4.80;;;15.80;65.90;;;;;;5108695;27;43967;-76
2022/01/14 11:52:07;;;;;;;5.23;4.93;;;15.90;65.60;;;;;;5108493;27;44100;-75
2022/01/14 11:54:40;;;;;;;4.20;4.00;;;16.00;65.20;;;;;;5106891;27;44059;-75
2022/01/14 11:57:09;;;;;;;4.30;4.10;;;16.20;64.80;;;;;;5124534;27;43879;-75
2022/01/14 11:59:44;;;;;;;4.23;4.07;;;16.30;64.40;;;;;;5108501;27;45056;-74
2022/01/14 12:02:27;;;;;;;4.97;4.67;;;16.30;64.30;;;;;;5123894;27;45382;-75
2022/01/14 12:05:16;;;;;;;4.67;4.37;;;16.30;64.50;;;;;;5108207;27;43982;-75
2022/01/14 12:08:19;;;;;;;4.23;4.10;;;16.20;64.60;;;;;;5117902;27;43935;-75
2022/01/14 12:10:51;;;;;;;4.77;4.40;;;16.10;65.00;;;;;;5039096;28;46992;-75
2022/01/14 12:13:40;;;;;;;4.13;3.97;;;16.00;65.10;;;;;;5037666;28;44640;-75
2022/01/14 12:16:11;;;;;;;4.93;4.63;;;16.00;65.40;;;;;;5078273;27;43590;-77
2022/01/14 12:19:14;;;;;;;5.43;4.93;;;15.90;65.10;;;;;;5108689;27;44041;-75
2022/01/14 12:21:54;;;;;;;8.37;5.50;;;15.90;64.90;;;;;;5121749;27;44065;-77
2022/01/14 12:24:35;;;;;;;6.30;5.87;;;15.80;64.80;;;;;;5127685;27;44072;-75
2022/01/14 12:27:49;;;;;;;6.37;5.70;;;15.80;64.60;;;;;;5127904;27;43910;-77
2022/01/14 12:30:25;;;;;;;6.17;5.67;;;15.90;64.20;;;;;;5126890;27;43860;-75
2022/01/14 12:32:56;;;;;;;6.03;5.60;;;16.00;64.00;;;;;;5126255;27;45324;-75
2022/01/14 12:35:32;;;;;;;6.90;5.77;;;16.00;64.80;;;;;;5126459;27;45835;-75
2022/01/14 12:38:01;;;;;;;5.23;4.93;;;16.00;64.20;;;;;;5127864;27;44018;-75
2022/01/14 12:40:32;;;;;;;5.33;4.93;;;16.00;64.30;;;;;;5127225;27;44280;-75
2022/01/14 12:43:01;;;;;;;6.10;5.60;;;16.00;64.50;;;;;;5127947;27;44175;-76
2022/01/14 12:45:34;;;;;;;5.77;5.30;;;15.90;64.60;;;;;;5107763;27;44306;-74
2022/01/14 12:48:31;;;;;;;5.43;5.03;;;15.90;64.70;;;;;;5117085;27;43942;-75
2022/01/14 12:51:11;;;;;;;5.53;5.10;;;15.90;65.60;;;;;;5108515;27;43997;-77
2022/01/14 12:53:49;;;;;;;5.83;5.47;;;15.80;64.80;;;;;;5122100;27;45356;-75
2022/01/14 12:56:18;;;;;;;5.53;5.13;;;15.80;64.90;;;;;;5107644;27;43343;-75
2022/01/14 12:58:58;;;;;;;5.13;4.83;;;15.80;65.00;;;;;;5107623;27;43993;-77
2022/01/14 13:01:40;;;;;;;5.40;5.00;;;15.80;65.00;;;;;;5108344;27;43460;-75
2022/01/14 13:04:10;;;;;;;5.60;5.20;;;15.80;65.10;;;;;;5123158;27;46935;-75
2022/01/14 13:06:48;;;;;;;5.37;5.00;;;15.80;65.00;;;;;;5108317;27;43489;-74
2022/01/14 13:09:20;;;;;;;5.37;5.00;;;15.80;64.80;;;;;;5122461;27;43967;-74
2022/01/14 13:11:54;;;;;;;5.40;5.03;;;16.00;64.40;;;;;;5108011;27;43894;-76
2022/01/14 13:14:30;;;;;;;5.57;5.17;;;16.10;63.80;;;;;;5107571;27;44800;-75
2022/01/14 13:17:00;;;;;;;4.83;4.43;;;16.30;63.40;;;;;;5107467;27;43885;-76
2022/01/14 13:19:30;;;;;;;5.30;5.00;;;16.30;63.30;;;;;;5119923;27;44068;-76
2022/01/14 13:21:58;;;;;;;5.03;4.73;;;16.30;63.50;;;;;;5107924;27;43838;-75
2022/01/14 13:24:28;;;;;;;5.13;4.83;;;16.20;63.70;;;;;;5107531;27;43953;-76
2022/01/14 13:27:07;;;;;;;4.77;4.47;;;16.10;63.90;;;;;;5122884;27;45036;-76
2022/01/14 13:29:37;;;;;;;4.93;4.63;;;16.10;64.30;;;;;;5107833;27;43973;-74
2022/01/14 13:32:05;;;;;;;4.90;4.60;;;16.00;64.30;;;;;;5138214;27;44011;-73
2022/01/14 13:34:33;;;;;;;4.73;4.53;;;15.90;64.50;;;;;;5128021;27;43851;-75
2022/01/14 13:37:01;;;;;;;5.00;4.67;;;15.90;64.60;;;;;;5129121;27;44806;-73
2022/01/14 13:39:31;;;;;;;4.77;4.37;;;15.90;64.60;;;;;;5130977;27;43939;-79
2022/01/14 13:41:59;;;;;;;4.83;4.63;;;15.90;64.50;;;;;;5129768;27;43886;-74
2022/01/14 13:44:33;;;;;;;4.73;4.43;;;15.90;64.50;;;;;;5128998;27;45816;-74
2022/01/14 13:47:07;;;;;;;5.27;4.90;;;15.80;64.40;;;;;;5130630;27;43444;-75
2022/01/14 13:49:35;;;;;;;4.90;4.60;;;15.90;64.40;;;;;;5110703;27;43892;-74
2022/01/14 13:52:07;;;;;;;4.57;4.17;;;15.90;64.20;;;;;;5136481;27;43900;-74
2022/01/14 13:54:36;;;;;;;6.73;4.90;;;16.10;64.10;;;;;;5110248;27;43912;-77
2022/01/14 13:57:10;;;;;;;7.87;4.67;;;16.20;63.50;;;;;;5120505;27;44946;-74
2022/01/14 13:59:38;;;;;;;8.43;5.17;;;16.20;63.40;;;;;;5134041;27;44039;-74
2022/01/14 14:02:07;;;;;;;7.50;4.90;;;16.10;64.10;;;;;;5132637;27;44054;-74
2022/01/14 14:04:47;;;;;;;5.00;4.70;;;16.10;64.30;;;;;;5133989;27;43927;-82
2022/01/14 14:07:19;;;;;;;4.77;4.30;;;16.10;64.50;;;;;;5132409;27;43965;-74
2022/01/14 14:10:08;;;;;;;6.53;5.50;;;16.00;64.60;;;;;;5114221;27;44088;-76
2022/01/14 14:12:46;;;;;;;5.20;4.80;;;16.00;64.80;;;;;;5110827;27;43871;-73
2022/01/14 14:18:07;;;;;;;5.53;5.00;;;15.90;65.10;;;;;;5110449;27;43969;-74
2022/01/14 14:20:35;;;;;;;5.77;5.17;;;15.90;65.20;;;;;;5110604;27;43980;-74
2022/01/14 14:23:14;;;;;;;5.33;4.90;;;15.80;65.30;;;;;;5110283;27;44248;-75
2022/01/14 14:25:43;;;;;;;4.47;4.13;;;15.80;65.40;;;;;;5125391;27;45328;-74
2022/01/14 14:28:12;;;;;;;5.13;4.63;;;15.80;65.40;;;;;;5129986;27;43983;-75
2022/01/14 14:30:40;;;;;;;4.93;4.53;;;15.80;65.40;;;;;;5108852;27;43651;-74
2022/01/14 14:33:11;;;;;;;4.27;4.07;;;15.90;65.30;;;;;;5110873;27;44066;-75
2022/01/14 14:35:40;;;;;;;4.17;3.97;;;16.00;64.90;;;;;;5109910;27;43760;-75
2022/01/14 14:38:09;;;;;;;5.10;4.60;;;16.10;64.50;;;;;;5119405;27;43987;-75
2022/01/14 14:40:37;;;;;;;4.00;3.70;;;16.20;64.30;;;;;;5129715;27;43803;-75
2022/01/14 14:43:07;;;;;;;4.57;4.27;;;16.20;64.40;;;;;;5128758;27;44059;-74